sensor_id;sensor_type;location;lat;lon;timestamp;P1;durP1;ratioP1;P2;durP2;ratioP2
2305;SDS011;1161;51.922;8.896;2022-11-18T00:01:57;35.53;;;17.07;;
2305;SDS011;1161;51.922;8.896;2022-11-18T00:04:23;28.87;;;15.97;;
2305;SDS011;1161;51.922;8.896;2022-11-18T00:06:50;42.50;;;18.23;;
2305;SDS011;1161;51.922;8.896;2022-11-18T00:09:17;43.47;;;16.47;;
2305;SDS011;1161;51.922;8.896;2022-11-18T00:11:44;28.90;;;16.27;;
2305;SDS011;1161;51.922;8.896;2022-11-18T00:14:28;32.30;;;15.93;;
2305;SDS011;1161;51.922;8.896;2022-11-18T00:16:55;37.37;;;17.80;;
2305;SDS011;1161;51.922;8.896;2022-11-18T00:19:25;37.40;;;16.20;;
2305;SDS011;1161;51.922;8.896;2022-11-18T00:21:53;37.13;;;18.57;;
2305;SDS011;1161;51.922;8.896;2022-11-18T00:24:20;35.17;;;17.60;;
2305;SDS011;1161;51.922;8.896;2022-11-18T00:26:47;35.27;;;17.57;;
2305;SDS011;1161;51.922;8.896;2022-11-18T00:29:14;36.43;;;16.97;;
2305;SDS011;1161;51.922;8.896;2022-11-18T00:31:42;40.30;;;17.73;;
2305;SDS011;1161;51.922;8.896;2022-11-18T00:34:11;41.17;;;19.13;;
2305;SDS011;1161;51.922;8.896;2022-11-18T00:36:39;36.00;;;20.33;;
2305;SDS011;1161;51.922;8.896;2022-11-18T00:39:05;40.00;;;21.80;;
2305;SDS011;1161;51.922;8.896;2022-11-18T00:41:32;42.03;;;16.03;;
2305;SDS011;1161;51.922;8.896;2022-11-18T00:44:13;35.97;;;16.27;;
2305;SDS011;1161;51.922;8.896;2022-11-18T00:46:40;33.57;;;18.00;;
2305;SDS011;1161;51.922;8.896;2022-11-18T00:49:07;46.90;;;18.17;;
2305;SDS011;1161;51.922;8.896;2022-11-18T00:51:36;30.83;;;15.43;;
2305;SDS011;1161;51.922;8.896;2022-11-18T00:54:02;31.20;;;17.53;;
2305;SDS011;1161;51.922;8.896;2022-11-18T00:56:30;45.40;;;20.90;;
2305;SDS011;1161;51.922;8.896;2022-11-18T00:58:57;44.27;;;20.40;;
2305;SDS011;1161;51.922;8.896;2022-11-18T01:01:24;51.43;;;23.80;;
2305;SDS011;1161;51.922;8.896;2022-11-18T01:03:50;39.23;;;19.40;;
2305;SDS011;1161;51.922;8.896;2022-11-18T01:06:17;36.83;;;17.43;;
2305;SDS011;1161;51.922;8.896;2022-11-18T01:08:45;36.83;;;14.83;;
2305;SDS011;1161;51.922;8.896;2022-11-18T01:11:12;36.87;;;17.00;;
2305;SDS011;1161;51.922;8.896;2022-11-18T01:13:56;39.67;;;16.97;;
2305;SDS011;1161;51.922;8.896;2022-11-18T01:16:24;34.10;;;16.57;;
2305;SDS011;1161;51.922;8.896;2022-11-18T01:18:52;37.93;;;16.70;;
2305;SDS011;1161;51.922;8.896;2022-11-18T01:21:19;37.30;;;18.07;;
2305;SDS011;1161;51.922;8.896;2022-11-18T01:23:47;36.47;;;18.07;;
2305;SDS011;1161;51.922;8.896;2022-11-18T01:26:14;37.90;;;20.47;;
2305;SDS011;1161;51.922;8.896;2022-11-18T01:28:42;44.13;;;19.00;;
2305;SDS011;1161;51.922;8.896;2022-11-18T01:31:09;41.80;;;18.20;;
2305;SDS011;1161;51.922;8.896;2022-11-18T01:33:37;36.10;;;17.03;;
2305;SDS011;1161;51.922;8.896;2022-11-18T01:36:06;38.50;;;17.37;;
2305;SDS011;1161;51.922;8.896;2022-11-18T01:38:40;31.40;;;17.50;;
2305;SDS011;1161;51.922;8.896;2022-11-18T01:41:08;37.77;;;18.63;;
2305;SDS011;1161;51.922;8.896;2022-11-18T01:43:46;35.03;;;16.30;;
2305;SDS011;1161;51.922;8.896;2022-11-18T01:46:17;31.23;;;16.47;;
2305;SDS011;1161;51.922;8.896;2022-11-18T01:48:45;45.47;;;21.60;;
2305;SDS011;1161;51.922;8.896;2022-11-18T01:51:14;29.60;;;15.50;;
2305;SDS011;1161;51.922;8.896;2022-11-18T01:53:42;41.60;;;18.23;;
2305;SDS011;1161;51.922;8.896;2022-11-18T01:56:14;32.27;;;18.07;;
2305;SDS011;1161;51.922;8.896;2022-11-18T01:58:43;39.60;;;18.07;;
2305;SDS011;1161;51.922;8.896;2022-11-18T02:01:12;40.27;;;15.50;;
2305;SDS011;1161;51.922;8.896;2022-11-18T02:03:38;38.23;;;17.67;;
2305;SDS011;1161;51.922;8.896;2022-11-18T02:06:06;35.80;;;18.53;;
2305;SDS011;1161;51.922;8.896;2022-11-18T02:08:33;37.70;;;16.80;;
2305;SDS011;1161;51.922;8.896;2022-11-18T02:11:01;38.50;;;18.60;;
2305;SDS011;1161;51.922;8.896;2022-11-18T02:13:29;41.87;;;19.20;;
2305;SDS011;1161;51.922;8.896;2022-11-18T02:15:59;38.97;;;19.10;;
2305;SDS011;1161;51.922;8.896;2022-11-18T02:18:34;39.17;;;17.10;;
2305;SDS011;1161;51.922;8.896;2022-11-18T02:21:10;38.87;;;18.30;;
2305;SDS011;1161;51.922;8.896;2022-11-18T02:26:53;43.97;;;19.77;;
2305;SDS011;1161;51.922;8.896;2022-11-18T02:29:35;42.20;;;18.20;;
2305;SDS011;1161;51.922;8.896;2022-11-18T02:32:05;37.67;;;18.20;;
2305;SDS011;1161;51.922;8.896;2022-11-18T02:34:37;37.17;;;19.27;;
2305;SDS011;1161;51.922;8.896;2022-11-18T02:37:07;31.37;;;16.60;;
2305;SDS011;1161;51.922;8.896;2022-11-18T02:39:38;37.40;;;17.13;;
2305;SDS011;1161;51.922;8.896;2022-11-18T02:42:10;35.83;;;17.10;;
2305;SDS011;1161;51.922;8.896;2022-11-18T02:44:40;43.83;;;19.60;;
2305;SDS011;1161;51.922;8.896;2022-11-18T02:47:10;37.40;;;18.83;;
2305;SDS011;1161;51.922;8.896;2022-11-18T02:49:40;31.00;;;17.53;;
2305;SDS011;1161;51.922;8.896;2022-11-18T02:52:08;38.20;;;17.50;;
2305;SDS011;1161;51.922;8.896;2022-11-18T02:54:36;44.43;;;19.60;;
2305;SDS011;1161;51.922;8.896;2022-11-18T02:57:05;39.90;;;18.33;;
2305;SDS011;1161;51.922;8.896;2022-11-18T02:59:33;45.27;;;17.90;;
2305;SDS011;1161;51.922;8.896;2022-11-18T03:02:01;39.13;;;16.80;;
2305;SDS011;1161;51.922;8.896;2022-11-18T03:04:28;43.10;;;16.73;;
2305;SDS011;1161;51.922;8.896;2022-11-18T03:06:55;40.30;;;16.67;;
2305;SDS011;1161;51.922;8.896;2022-11-18T03:09:28;38.70;;;18.40;;
2305;SDS011;1161;51.922;8.896;2022-11-18T03:12:00;43.63;;;18.00;;
2305;SDS011;1161;51.922;8.896;2022-11-18T03:14:34;39.80;;;16.87;;
2305;SDS011;1161;51.922;8.896;2022-11-18T03:17:08;37.93;;;15.80;;
2305;SDS011;1161;51.922;8.896;2022-11-18T03:19:42;39.17;;;17.53;;
2305;SDS011;1161;51.922;8.896;2022-11-18T03:22:16;43.10;;;18.27;;
2305;SDS011;1161;51.922;8.896;2022-11-18T03:24:49;59.80;;;17.40;;
2305;SDS011;1161;51.922;8.896;2022-11-18T03:27:20;35.90;;;16.00;;
2305;SDS011;1161;51.922;8.896;2022-11-18T03:29:52;39.27;;;17.03;;
2305;SDS011;1161;51.922;8.896;2022-11-18T03:32:25;45.40;;;19.53;;
2305;SDS011;1161;51.922;8.896;2022-11-18T03:34:54;38.40;;;16.80;;
2305;SDS011;1161;51.922;8.896;2022-11-18T03:37:23;38.63;;;16.80;;
2305;SDS011;1161;51.922;8.896;2022-11-18T03:39:52;42.37;;;18.40;;
2305;SDS011;1161;51.922;8.896;2022-11-18T03:42:22;43.03;;;16.67;;
2305;SDS011;1161;51.922;8.896;2022-11-18T03:44:51;56.20;;;17.87;;
2305;SDS011;1161;51.922;8.896;2022-11-18T03:47:27;38.67;;;18.07;;
2305;SDS011;1161;51.922;8.896;2022-11-18T03:49:57;48.37;;;18.47;;
2305;SDS011;1161;51.922;8.896;2022-11-18T03:52:28;42.97;;;17.40;;
2305;SDS011;1161;51.922;8.896;2022-11-18T03:54:57;42.07;;;19.17;;
2305;SDS011;1161;51.922;8.896;2022-11-18T03:57:32;36.50;;;16.70;;
2305;SDS011;1161;51.922;8.896;2022-11-18T04:00:05;54.83;;;20.67;;
2305;SDS011;1161;51.922;8.896;2022-11-18T04:02:34;51.93;;;18.00;;
2305;SDS011;1161;51.922;8.896;2022-11-18T04:05:02;53.60;;;18.53;;
2305;SDS011;1161;51.922;8.896;2022-11-18T04:07:30;38.47;;;15.97;;
2305;SDS011;1161;51.922;8.896;2022-11-18T04:10:01;48.27;;;18.20;;
2305;SDS011;1161;51.922;8.896;2022-11-18T04:12:33;45.33;;;20.07;;
2305;SDS011;1161;51.922;8.896;2022-11-18T04:15:03;43.23;;;17.73;;
2305;SDS011;1161;51.922;8.896;2022-11-18T04:17:31;51.40;;;18.33;;
2305;SDS011;1161;51.922;8.896;2022-11-18T04:19:59;46.83;;;16.87;;
2305;SDS011;1161;51.922;8.896;2022-11-18T04:22:26;43.90;;;15.90;;
2305;SDS011;1161;51.922;8.896;2022-11-18T04:24:53;47.57;;;21.50;;
2305;SDS011;1161;51.922;8.896;2022-11-18T04:27:20;43.43;;;17.37;;
2305;SDS011;1161;51.922;8.896;2022-11-18T04:29:47;36.07;;;16.83;;
2305;SDS011;1161;51.922;8.896;2022-11-18T04:32:14;39.37;;;19.53;;
2305;SDS011;1161;51.922;8.896;2022-11-18T04:34:41;40.27;;;20.07;;
2305;SDS011;1161;51.922;8.896;2022-11-18T04:37:09;35.87;;;16.37;;
2305;SDS011;1161;51.922;8.896;2022-11-18T04:39:36;39.37;;;16.93;;
2305;SDS011;1161;51.922;8.896;2022-11-18T04:42:03;39.83;;;15.73;;
2305;SDS011;1161;51.922;8.896;2022-11-18T04:44:31;38.83;;;17.20;;
2305;SDS011;1161;51.922;8.896;2022-11-18T04:46:59;36.73;;;17.77;;
2305;SDS011;1161;51.922;8.896;2022-11-18T04:49:27;37.97;;;17.30;;
2305;SDS011;1161;51.922;8.896;2022-11-18T04:51:55;38.60;;;17.40;;
2305;SDS011;1161;51.922;8.896;2022-11-18T04:54:24;32.57;;;17.87;;
2305;SDS011;1161;51.922;8.896;2022-11-18T04:56:51;54.80;;;21.83;;
2305;SDS011;1161;51.922;8.896;2022-11-18T04:59:20;49.60;;;21.20;;
2305;SDS011;1161;51.922;8.896;2022-11-18T05:01:50;38.83;;;17.77;;
2305;SDS011;1161;51.922;8.896;2022-11-18T05:04:20;41.13;;;18.53;;
2305;SDS011;1161;51.922;8.896;2022-11-18T05:06:58;50.87;;;19.30;;
2305;SDS011;1161;51.922;8.896;2022-11-18T05:09:28;41.03;;;20.93;;
2305;SDS011;1161;51.922;8.896;2022-11-18T05:11:55;44.63;;;18.37;;
2305;SDS011;1161;51.922;8.896;2022-11-18T05:14:40;51.73;;;23.40;;
2305;SDS011;1161;51.922;8.896;2022-11-18T05:17:09;52.13;;;18.00;;
2305;SDS011;1161;51.922;8.896;2022-11-18T05:19:37;48.77;;;20.50;;
2305;SDS011;1161;51.922;8.896;2022-11-18T05:22:05;46.27;;;19.73;;
2305;SDS011;1161;51.922;8.896;2022-11-18T05:24:34;67.83;;;25.37;;
2305;SDS011;1161;51.922;8.896;2022-11-18T05:27:01;49.67;;;23.77;;
2305;SDS011;1161;51.922;8.896;2022-11-18T05:29:29;51.87;;;24.07;;
2305;SDS011;1161;51.922;8.896;2022-11-18T05:31:57;52.20;;;26.30;;
2305;SDS011;1161;51.922;8.896;2022-11-18T05:34:25;42.33;;;21.83;;
2305;SDS011;1161;51.922;8.896;2022-11-18T05:36:53;42.03;;;19.10;;
2305;SDS011;1161;51.922;8.896;2022-11-18T05:39:23;45.80;;;19.60;;
2305;SDS011;1161;51.922;8.896;2022-11-18T05:41:54;47.23;;;18.67;;
2305;SDS011;1161;51.922;8.896;2022-11-18T05:44:38;50.50;;;20.20;;
2305;SDS011;1161;51.922;8.896;2022-11-18T05:47:05;45.73;;;19.93;;
2305;SDS011;1161;51.922;8.896;2022-11-18T05:49:33;61.77;;;21.40;;
2305;SDS011;1161;51.922;8.896;2022-11-18T05:52:02;43.20;;;19.60;;
2305;SDS011;1161;51.922;8.896;2022-11-18T05:54:29;53.93;;;21.47;;
2305;SDS011;1161;51.922;8.896;2022-11-18T05:56:59;54.83;;;19.07;;
2305;SDS011;1161;51.922;8.896;2022-11-18T05:59:29;54.20;;;22.53;;
2305;SDS011;1161;51.922;8.896;2022-11-18T06:01:57;44.50;;;19.63;;
2305;SDS011;1161;51.922;8.896;2022-11-18T06:04:27;51.17;;;20.93;;
2305;SDS011;1161;51.922;8.896;2022-11-18T06:07:01;50.77;;;19.13;;
2305;SDS011;1161;51.922;8.896;2022-11-18T06:09:49;46.07;;;19.57;;
2305;SDS011;1161;51.922;8.896;2022-11-18T06:12:20;51.17;;;19.10;;
2305;SDS011;1161;51.922;8.896;2022-11-18T06:14:51;40.17;;;19.43;;
2305;SDS011;1161;51.922;8.896;2022-11-18T06:17:21;55.30;;;21.67;;
2305;SDS011;1161;51.922;8.896;2022-11-18T06:19:51;54.60;;;22.17;;
2305;SDS011;1161;51.922;8.896;2022-11-18T06:22:18;37.90;;;18.53;;
2305;SDS011;1161;51.922;8.896;2022-11-18T06:24:46;38.03;;;19.70;;
2305;SDS011;1161;51.922;8.896;2022-11-18T06:27:13;41.93;;;20.10;;
2305;SDS011;1161;51.922;8.896;2022-11-18T06:29:43;68.07;;;20.70;;
2305;SDS011;1161;51.922;8.896;2022-11-18T06:32:11;47.50;;;18.90;;
2305;SDS011;1161;51.922;8.896;2022-11-18T06:34:38;51.13;;;17.10;;
2305;SDS011;1161;51.922;8.896;2022-11-18T06:37:12;40.17;;;18.30;;
2305;SDS011;1161;51.922;8.896;2022-11-18T06:39:40;41.80;;;18.77;;
2305;SDS011;1161;51.922;8.896;2022-11-18T06:42:09;46.67;;;18.00;;
2305;SDS011;1161;51.922;8.896;2022-11-18T06:44:58;46.20;;;17.13;;
2305;SDS011;1161;51.922;8.896;2022-11-18T06:47:24;44.77;;;18.33;;
2305;SDS011;1161;51.922;8.896;2022-11-18T06:49:51;50.43;;;18.87;;
2305;SDS011;1161;51.922;8.896;2022-11-18T06:52:18;45.33;;;16.33;;
2305;SDS011;1161;51.922;8.896;2022-11-18T06:54:45;42.43;;;19.00;;
2305;SDS011;1161;51.922;8.896;2022-11-18T06:57:12;55.43;;;19.50;;
2305;SDS011;1161;51.922;8.896;2022-11-18T06:59:39;42.07;;;17.93;;
2305;SDS011;1161;51.922;8.896;2022-11-18T07:02:09;52.80;;;18.13;;
2305;SDS011;1161;51.922;8.896;2022-11-18T07:04:37;36.80;;;17.80;;
2305;SDS011;1161;51.922;8.896;2022-11-18T07:07:06;38.20;;;16.23;;
2305;SDS011;1161;51.922;8.896;2022-11-18T07:09:33;39.43;;;16.93;;
2305;SDS011;1161;51.922;8.896;2022-11-18T07:12:03;36.83;;;14.70;;
2305;SDS011;1161;51.922;8.896;2022-11-18T07:14:31;39.90;;;16.30;;
2305;SDS011;1161;51.922;8.896;2022-11-18T07:16:58;34.33;;;17.00;;
2305;SDS011;1161;51.922;8.896;2022-11-18T07:19:27;46.00;;;18.10;;
2305;SDS011;1161;51.922;8.896;2022-11-18T07:21:55;38.30;;;15.27;;
2305;SDS011;1161;51.922;8.896;2022-11-18T07:24:24;35.03;;;15.80;;
2305;SDS011;1161;51.922;8.896;2022-11-18T07:26:51;39.70;;;16.00;;
2305;SDS011;1161;51.922;8.896;2022-11-18T07:29:18;45.57;;;18.87;;
2305;SDS011;1161;51.922;8.896;2022-11-18T07:31:45;34.27;;;15.47;;
2305;SDS011;1161;51.922;8.896;2022-11-18T07:34:12;34.43;;;14.80;;
2305;SDS011;1161;51.922;8.896;2022-11-18T07:36:40;31.67;;;17.50;;
2305;SDS011;1161;51.922;8.896;2022-11-18T07:39:07;36.27;;;16.23;;
2305;SDS011;1161;51.922;8.896;2022-11-18T07:41:34;42.43;;;17.13;;
2305;SDS011;1161;51.922;8.896;2022-11-18T07:44:01;36.77;;;16.10;;
2305;SDS011;1161;51.922;8.896;2022-11-18T07:46:29;38.00;;;16.97;;
2305;SDS011;1161;51.922;8.896;2022-11-18T07:48:57;38.70;;;17.90;;
2305;SDS011;1161;51.922;8.896;2022-11-18T07:51:26;37.30;;;14.80;;
2305;SDS011;1161;51.922;8.896;2022-11-18T07:53:55;30.80;;;14.67;;
2305;SDS011;1161;51.922;8.896;2022-11-18T07:56:22;32.60;;;15.23;;
2305;SDS011;1161;51.922;8.896;2022-11-18T07:58:50;35.40;;;16.00;;
2305;SDS011;1161;51.922;8.896;2022-11-18T08:01:19;35.83;;;16.10;;
2305;SDS011;1161;51.922;8.896;2022-11-18T08:03:46;45.77;;;17.00;;
2305;SDS011;1161;51.922;8.896;2022-11-18T08:06:14;32.60;;;15.07;;
2305;SDS011;1161;51.922;8.896;2022-11-18T08:08:42;31.27;;;14.40;;
2305;SDS011;1161;51.922;8.896;2022-11-18T08:11:10;40.70;;;15.47;;
2305;SDS011;1161;51.922;8.896;2022-11-18T08:13:38;41.07;;;14.30;;
2305;SDS011;1161;51.922;8.896;2022-11-18T08:16:10;34.13;;;14.87;;
2305;SDS011;1161;51.922;8.896;2022-11-18T08:18:38;31.00;;;15.67;;
2305;SDS011;1161;51.922;8.896;2022-11-18T08:21:05;34.30;;;15.67;;
2305;SDS011;1161;51.922;8.896;2022-11-18T08:23:31;34.63;;;13.50;;
2305;SDS011;1161;51.922;8.896;2022-11-18T08:26:00;36.40;;;16.30;;
2305;SDS011;1161;51.922;8.896;2022-11-18T08:28:29;30.20;;;14.07;;
2305;SDS011;1161;51.922;8.896;2022-11-18T08:30:56;36.03;;;16.17;;
2305;SDS011;1161;51.922;8.896;2022-11-18T08:33:22;27.87;;;13.40;;
2305;SDS011;1161;51.922;8.896;2022-11-18T08:35:49;35.80;;;16.70;;
2305;SDS011;1161;51.922;8.896;2022-11-18T08:38:16;32.97;;;15.80;;
2305;SDS011;1161;51.922;8.896;2022-11-18T08:40:45;32.87;;;13.87;;
2305;SDS011;1161;51.922;8.896;2022-11-18T08:43:12;36.83;;;16.70;;
2305;SDS011;1161;51.922;8.896;2022-11-18T08:45:41;30.50;;;14.27;;
2305;SDS011;1161;51.922;8.896;2022-11-18T08:48:07;30.43;;;12.47;;
2305;SDS011;1161;51.922;8.896;2022-11-18T08:50:34;34.53;;;15.07;;
2305;SDS011;1161;51.922;8.896;2022-11-18T08:53:01;32.73;;;13.47;;
2305;SDS011;1161;51.922;8.896;2022-11-18T08:55:27;44.73;;;18.10;;
2305;SDS011;1161;51.922;8.896;2022-11-18T08:57:55;31.77;;;12.97;;
2305;SDS011;1161;51.922;8.896;2022-11-18T09:00:22;32.33;;;12.80;;
2305;SDS011;1161;51.922;8.896;2022-11-18T09:02:51;35.83;;;14.70;;
2305;SDS011;1161;51.922;8.896;2022-11-18T09:05:18;35.50;;;13.80;;
2305;SDS011;1161;51.922;8.896;2022-11-18T09:07:44;35.10;;;14.90;;
2305;SDS011;1161;51.922;8.896;2022-11-18T09:10:11;35.33;;;15.47;;
2305;SDS011;1161;51.922;8.896;2022-11-18T09:12:45;33.00;;;14.70;;
2305;SDS011;1161;51.922;8.896;2022-11-18T09:15:12;28.63;;;14.70;;
2305;SDS011;1161;51.922;8.896;2022-11-18T09:17:38;31.70;;;14.57;;
2305;SDS011;1161;51.922;8.896;2022-11-18T09:20:07;29.43;;;14.40;;
2305;SDS011;1161;51.922;8.896;2022-11-18T09:22:35;32.37;;;14.57;;
2305;SDS011;1161;51.922;8.896;2022-11-18T09:25:03;33.50;;;14.23;;
2305;SDS011;1161;51.922;8.896;2022-11-18T09:27:30;35.97;;;13.87;;
2305;SDS011;1161;51.922;8.896;2022-11-18T09:29:57;32.90;;;13.63;;
2305;SDS011;1161;51.922;8.896;2022-11-18T09:32:24;33.33;;;15.73;;
2305;SDS011;1161;51.922;8.896;2022-11-18T09:34:51;24.70;;;11.40;;
2305;SDS011;1161;51.922;8.896;2022-11-18T09:37:19;34.40;;;13.40;;
2305;SDS011;1161;51.922;8.896;2022-11-18T09:39:46;24.33;;;11.73;;
2305;SDS011;1161;51.922;8.896;2022-11-18T09:42:17;43.00;;;16.37;;
2305;SDS011;1161;51.922;8.896;2022-11-18T09:44:51;25.60;;;11.90;;
2305;SDS011;1161;51.922;8.896;2022-11-18T09:47:26;29.60;;;14.27;;
2305;SDS011;1161;51.922;8.896;2022-11-18T09:49:55;27.03;;;11.80;;
2305;SDS011;1161;51.922;8.896;2022-11-18T09:52:26;29.33;;;11.50;;
2305;SDS011;1161;51.922;8.896;2022-11-18T09:54:54;28.87;;;13.23;;
2305;SDS011;1161;51.922;8.896;2022-11-18T09:57:22;26.07;;;11.77;;
2305;SDS011;1161;51.922;8.896;2022-11-18T09:59:50;32.37;;;13.97;;
2305;SDS011;1161;51.922;8.896;2022-11-18T10:02:28;28.67;;;12.50;;
2305;SDS011;1161;51.922;8.896;2022-11-18T10:04:59;28.97;;;13.50;;
2305;SDS011;1161;51.922;8.896;2022-11-18T10:07:31;29.47;;;12.40;;
2305;SDS011;1161;51.922;8.896;2022-11-18T10:10:02;28.17;;;13.00;;
2305;SDS011;1161;51.922;8.896;2022-11-18T10:12:37;24.30;;;13.27;;
2305;SDS011;1161;51.922;8.896;2022-11-18T10:15:11;22.10;;;11.37;;
2305;SDS011;1161;51.922;8.896;2022-11-18T10:17:47;34.57;;;13.93;;
2305;SDS011;1161;51.922;8.896;2022-11-18T10:20:20;26.57;;;11.00;;
2305;SDS011;1161;51.922;8.896;2022-11-18T10:22:53;25.77;;;11.63;;
2305;SDS011;1161;51.922;8.896;2022-11-18T10:25:22;27.00;;;11.37;;
2305;SDS011;1161;51.922;8.896;2022-11-18T10:27:50;32.77;;;10.80;;
2305;SDS011;1161;51.922;8.896;2022-11-18T10:30:17;24.80;;;12.13;;
2305;SDS011;1161;51.922;8.896;2022-11-18T10:32:51;36.13;;;12.50;;
2305;SDS011;1161;51.922;8.896;2022-11-18T10:35:22;33.03;;;11.90;;
2305;SDS011;1161;51.922;8.896;2022-11-18T10:37:59;26.13;;;11.07;;
2305;SDS011;1161;51.922;8.896;2022-11-18T10:40:28;21.13;;;9.90;;
2305;SDS011;1161;51.922;8.896;2022-11-18T10:42:56;25.80;;;10.70;;
2305;SDS011;1161;51.922;8.896;2022-11-18T10:45:24;19.20;;;10.17;;
2305;SDS011;1161;51.922;8.896;2022-11-18T10:47:56;23.57;;;10.97;;
2305;SDS011;1161;51.922;8.896;2022-11-18T10:50:27;30.43;;;13.93;;
2305;SDS011;1161;51.922;8.896;2022-11-18T10:52:57;34.67;;;14.40;;
2305;SDS011;1161;51.922;8.896;2022-11-18T10:55:25;29.03;;;15.30;;
2305;SDS011;1161;51.922;8.896;2022-11-18T10:57:54;27.33;;;14.43;;
2305;SDS011;1161;51.922;8.896;2022-11-18T11:00:32;30.97;;;13.27;;
2305;SDS011;1161;51.922;8.896;2022-11-18T11:03:11;20.60;;;10.13;;
2305;SDS011;1161;51.922;8.896;2022-11-18T11:08:46;22.47;;;10.83;;
2305;SDS011;1161;51.922;8.896;2022-11-18T11:11:22;21.50;;;10.93;;
2305;SDS011;1161;51.922;8.896;2022-11-18T11:13:51;18.47;;;10.43;;
2305;SDS011;1161;51.922;8.896;2022-11-18T11:16:21;22.67;;;10.67;;
2305;SDS011;1161;51.922;8.896;2022-11-18T11:18:49;22.23;;;10.13;;
2305;SDS011;1161;51.922;8.896;2022-11-18T11:21:19;27.17;;;11.80;;
2305;SDS011;1161;51.922;8.896;2022-11-18T11:23:49;24.63;;;11.37;;
2305;SDS011;1161;51.922;8.896;2022-11-18T11:26:19;18.40;;;10.10;;
2305;SDS011;1161;51.922;8.896;2022-11-18T11:28:52;19.87;;;10.70;;
2305;SDS011;1161;51.922;8.896;2022-11-18T11:31:25;27.43;;;11.63;;
2305;SDS011;1161;51.922;8.896;2022-11-18T11:33:55;29.07;;;11.93;;
2305;SDS011;1161;51.922;8.896;2022-11-18T11:36:29;22.57;;;11.80;;
2305;SDS011;1161;51.922;8.896;2022-11-18T11:39:03;27.10;;;12.30;;
2305;SDS011;1161;51.922;8.896;2022-11-18T11:41:41;26.13;;;10.97;;
2305;SDS011;1161;51.922;8.896;2022-11-18T11:44:19;26.70;;;13.33;;
2305;SDS011;1161;51.922;8.896;2022-11-18T11:46:54;21.93;;;12.43;;
2305;SDS011;1161;51.922;8.896;2022-11-18T11:49:51;19.77;;;10.77;;
2305;SDS011;1161;51.922;8.896;2022-11-18T11:52:21;31.90;;;12.70;;
2305;SDS011;1161;51.922;8.896;2022-11-18T11:54:57;30.37;;;12.43;;
2305;SDS011;1161;51.922;8.896;2022-11-18T11:57:31;29.17;;;12.37;;
2305;SDS011;1161;51.922;8.896;2022-11-18T12:00:06;25.57;;;12.70;;
2305;SDS011;1161;51.922;8.896;2022-11-18T12:02:39;32.13;;;13.50;;
2305;SDS011;1161;51.922;8.896;2022-11-18T12:05:17;27.37;;;13.40;;
2305;SDS011;1161;51.922;8.896;2022-11-18T12:07:49;33.37;;;14.20;;
2305;SDS011;1161;51.922;8.896;2022-11-18T12:10:23;32.93;;;13.37;;
2305;SDS011;1161;51.922;8.896;2022-11-18T12:12:56;27.03;;;15.53;;
2305;SDS011;1161;51.922;8.896;2022-11-18T12:15:41;33.17;;;14.53;;
2305;SDS011;1161;51.922;8.896;2022-11-18T12:18:16;29.10;;;13.07;;
2305;SDS011;1161;51.922;8.896;2022-11-18T12:20:46;26.10;;;14.37;;
2305;SDS011;1161;51.922;8.896;2022-11-18T12:23:15;26.73;;;13.50;;
2305;SDS011;1161;51.922;8.896;2022-11-18T12:25:51;31.60;;;14.27;;
2305;SDS011;1161;51.922;8.896;2022-11-18T12:28:25;24.20;;;12.03;;
2305;SDS011;1161;51.922;8.896;2022-11-18T12:34:03;24.30;;;11.80;;
2305;SDS011;1161;51.922;8.896;2022-11-18T12:36:41;29.00;;;13.07;;
2305;SDS011;1161;51.922;8.896;2022-11-18T12:42:31;27.33;;;12.23;;
2305;SDS011;1161;51.922;8.896;2022-11-18T12:48:29;19.63;;;10.57;;
2305;SDS011;1161;51.922;8.896;2022-11-18T12:51:10;18.80;;;9.73;;
2305;SDS011;1161;51.922;8.896;2022-11-18T12:56:54;32.23;;;9.70;;
2305;SDS011;1161;51.922;8.896;2022-11-18T12:59:31;17.50;;;10.67;;
2305;SDS011;1161;51.922;8.896;2022-11-18T13:02:16;21.83;;;10.10;;
2305;SDS011;1161;51.922;8.896;2022-11-18T13:04:48;22.63;;;9.77;;
2305;SDS011;1161;51.922;8.896;2022-11-18T13:07:28;21.13;;;9.70;;
2305;SDS011;1161;51.922;8.896;2022-11-18T13:10:18;19.43;;;9.37;;
2305;SDS011;1161;51.922;8.896;2022-11-18T13:12:47;18.57;;;9.27;;
2305;SDS011;1161;51.922;8.896;2022-11-18T13:15:14;23.03;;;9.43;;
2305;SDS011;1161;51.922;8.896;2022-11-18T13:20:43;15.17;;;7.93;;
2305;SDS011;1161;51.922;8.896;2022-11-18T13:23:27;19.83;;;9.10;;
2305;SDS011;1161;51.922;8.896;2022-11-18T13:26:14;16.67;;;8.40;;
2305;SDS011;1161;51.922;8.896;2022-11-18T13:28:45;15.77;;;8.27;;
2305;SDS011;1161;51.922;8.896;2022-11-18T13:31:26;20.23;;;10.00;;
2305;SDS011;1161;51.922;8.896;2022-11-18T13:34:01;18.27;;;7.73;;
2305;SDS011;1161;51.922;8.896;2022-11-18T13:36:30;14.70;;;7.47;;
2305;SDS011;1161;51.922;8.896;2022-11-18T13:38:57;17.07;;;8.00;;
2305;SDS011;1161;51.922;8.896;2022-11-18T13:41:25;13.97;;;6.47;;
2305;SDS011;1161;51.922;8.896;2022-11-18T13:44:08;13.60;;;6.93;;
2305;SDS011;1161;51.922;8.896;2022-11-18T13:46:36;16.97;;;6.70;;
2305;SDS011;1161;51.922;8.896;2022-11-18T13:49:05;12.00;;;6.53;;
2305;SDS011;1161;51.922;8.896;2022-11-18T13:51:36;9.90;;;6.70;;
2305;SDS011;1161;51.922;8.896;2022-11-18T13:54:03;11.40;;;6.53;;
2305;SDS011;1161;51.922;8.896;2022-11-18T13:56:30;9.43;;;5.90;;
2305;SDS011;1161;51.922;8.896;2022-11-18T13:58:58;10.43;;;5.20;;
2305;SDS011;1161;51.922;8.896;2022-11-18T14:01:26;13.43;;;5.33;;
2305;SDS011;1161;51.922;8.896;2022-11-18T14:03:54;12.00;;;5.20;;
2305;SDS011;1161;51.922;8.896;2022-11-18T14:06:25;10.60;;;5.80;;
2305;SDS011;1161;51.922;8.896;2022-11-18T14:09:03;11.67;;;6.43;;
2305;SDS011;1161;51.922;8.896;2022-11-18T14:11:35;16.47;;;6.60;;
2305;SDS011;1161;51.922;8.896;2022-11-18T14:14:04;29.87;;;8.63;;
2305;SDS011;1161;51.922;8.896;2022-11-18T14:16:33;20.30;;;8.90;;
2305;SDS011;1161;51.922;8.896;2022-11-18T14:19:00;12.27;;;5.97;;
2305;SDS011;1161;51.922;8.896;2022-11-18T14:21:29;14.20;;;8.10;;
2305;SDS011;1161;51.922;8.896;2022-11-18T14:23:57;12.40;;;6.67;;
2305;SDS011;1161;51.922;8.896;2022-11-18T14:26:27;13.30;;;6.43;;
2305;SDS011;1161;51.922;8.896;2022-11-18T14:28:55;14.13;;;5.57;;
2305;SDS011;1161;51.922;8.896;2022-11-18T14:31:23;9.13;;;5.03;;
2305;SDS011;1161;51.922;8.896;2022-11-18T14:34:10;7.90;;;5.80;;
2305;SDS011;1161;51.922;8.896;2022-11-18T14:36:44;7.97;;;5.90;;
2305;SDS011;1161;51.922;8.896;2022-11-18T14:39:11;10.00;;;5.00;;
2305;SDS011;1161;51.922;8.896;2022-11-18T14:41:38;16.33;;;7.03;;
2305;SDS011;1161;51.922;8.896;2022-11-18T14:44:14;13.57;;;7.77;;
2305;SDS011;1161;51.922;8.896;2022-11-18T14:46:42;11.73;;;6.57;;
2305;SDS011;1161;51.922;8.896;2022-11-18T14:49:12;17.00;;;6.97;;
2305;SDS011;1161;51.922;8.896;2022-11-18T14:51:40;12.70;;;7.50;;
2305;SDS011;1161;51.922;8.896;2022-11-18T14:54:11;10.93;;;6.40;;
2305;SDS011;1161;51.922;8.896;2022-11-18T14:56:39;12.33;;;6.97;;
2305;SDS011;1161;51.922;8.896;2022-11-18T14:59:09;13.67;;;6.60;;
2305;SDS011;1161;51.922;8.896;2022-11-18T15:01:37;15.57;;;7.30;;
2305;SDS011;1161;51.922;8.896;2022-11-18T15:04:04;14.53;;;6.60;;
2305;SDS011;1161;51.922;8.896;2022-11-18T15:06:31;16.77;;;8.07;;
2305;SDS011;1161;51.922;8.896;2022-11-18T15:08:58;15.40;;;6.43;;
2305;SDS011;1161;51.922;8.896;2022-11-18T15:11:26;12.17;;;5.47;;
2305;SDS011;1161;51.922;8.896;2022-11-18T15:13:53;13.47;;;5.70;;
2305;SDS011;1161;51.922;8.896;2022-11-18T15:16:21;15.70;;;6.73;;
2305;SDS011;1161;51.922;8.896;2022-11-18T15:18:51;15.17;;;5.60;;
2305;SDS011;1161;51.922;8.896;2022-11-18T15:21:19;15.90;;;6.53;;
2305;SDS011;1161;51.922;8.896;2022-11-18T15:23:46;9.37;;;6.80;;
2305;SDS011;1161;51.922;8.896;2022-11-18T15:26:15;13.30;;;6.70;;
2305;SDS011;1161;51.922;8.896;2022-11-18T15:28:45;14.27;;;7.00;;
2305;SDS011;1161;51.922;8.896;2022-11-18T15:31:12;14.03;;;6.20;;